Spencer, WI (54479)

4:41 PM CDT on April 26, 2017 (GMT -0500)
Rural | | Change Station

Elev 1210 ft 44.75 °N, 90.14 °W | Updated 31 seconds ago

Overcast
Overcast
46.1 °F
Feels Like 46 °F
N
3.0
Wind Variable Wind from West

Today
High -- | Low -- °F
--% Chance of Precip.
Yesterday
High -- | Low -- °F
Precip. -- in
Pressure 29.43 in
Visibility 10.0 miles
Clouds Overcast 600 ft
Windchill 46 °F
Dew Point 44 °F
Humidity 93%
Rainfall 0.46 in
Snow Depth Not available.
5:58 AM 8:00 PM
New Moon, 0% visible
METAR KMFI 262054Z AUTO 27010KT 10SM OVC006 07/06 A2942 RMK AO2 CIG 005V009 SLP965 60000 T00720056 51027
Pressure 29.43 in
Visibility 10.0 miles
Clouds Overcast 600 ft
Windchill 46 °F
Dew Point 44 °F
Humidity 93%
Rainfall 0.46 in
Snow Depth Not available.
5:58 AM 8:00 PM
New Moon, 0% visible
METAR KMFI 262054Z AUTO 27010KT 10SM OVC006 07/06 A2942 RMK AO2 CIG 005V009 SLP965 60000 T00720056 51027

Get Severe Weather Alerts

Thanks for signing up!

Be on the lookout for a verification email in your inbox.

You'll start receiving the daily forecast at 8 AM.

×

10-Day Weather Forecast

Almanac

Astronomy

Apr. 26, 2017 Rise Set
Actual Time
Civil Twilight
Nautical Twilight
Astronomical Twilight
Moon
Length of Visible Light
Length of Day
Tomorrow will be .
, % of the Moon is Illuminated

Today's Extremes

State Highs State Lows

Community

WunderPhotos

WunderBlog® & News

Nearby

Air Quality

  Air Quality AQ Index Pollutant
Not available.

Snow Depth

Station Depth Elevation

Earthquake Activity

City Distance Mag. Time & Date
Minimum magnitude displayed is 2.5.

Coastal Water Temperatures

Place Temperature

Stations

Nearby Weather Stations

Station Location Temp. Windchill Dew Point Humidity Wind Precip. Elev Updated Type
                   

Watches & Warnings

There are currently no watches in effect.